createdAt,value
2016-03-28T12:34:30.630Z,9560
2016-03-28T12:34:56.805Z,9400
2016-03-28T12:35:47.105Z,8984
2016-03-28T12:36:47.498Z,8588
2016-03-28T12:37:47.641Z,8384
2016-03-28T12:38:46.597Z,8180
2016-03-28T12:39:46.990Z,7828
2016-03-28T12:40:47.164Z,7504
2016-03-28T12:41:47.164Z,7340
2016-03-28T12:43:47.518Z,7656
2016-03-28T12:45:57.887Z,8704
2016-03-28T12:46:44.066Z,9000
2016-03-28T12:48:35.298Z,9216
2016-03-28T12:50:13.873Z,9352
2016-03-28T12:51:52.525Z,8548
2016-03-28T12:53:32.636Z,7760
2016-03-28T12:55:16.777Z,7820
2016-03-28T12:57:01.357Z,8312
2016-03-28T12:58:36.953Z,9316
2016-03-28T13:00:05.444Z,10080
2016-03-28T13:01:52.698Z,10784
2016-03-28T13:03:33.701Z,11596
2016-03-28T13:05:12.048Z,12160
2016-03-28T13:06:46.053Z,11764
2016-03-28T13:08:28.478Z,11100
2016-03-28T13:09:58.468Z,11140
2016-03-28T13:11:29.658Z,11684
2016-03-28T13:12:57.632Z,12324
2016-03-28T13:13:11.226Z,12420
2016-03-28T13:14:11.291Z,12424
2016-03-28T13:15:12.746Z,11988
2016-03-28T13:16:12.234Z,11576
2016-03-28T13:17:11.143Z,11360
2016-03-28T13:18:11.832Z,11136
2016-03-28T13:19:12.538Z,10868
2016-03-28T13:20:11.760Z,10556
2016-03-28T13:21:12.138Z,10332
2016-03-28T13:22:12.437Z,10276
2016-03-28T13:23:11.956Z,10172
2016-03-28T13:24:11.942Z,9944
2016-03-28T13:25:11.086Z,9632
2016-03-28T13:26:10.901Z,9388
2016-03-28T13:27:11.309Z,9308
2016-03-28T13:28:11.078Z,9320
2016-03-28T13:29:12.065Z,9192
2016-03-28T13:30:11.864Z,9052
2016-03-28T13:31:12.336Z,8872
2016-03-28T13:32:11.902Z,8748
2016-03-28T13:33:11.857Z,8740
2016-03-28T13:34:12.828Z,8856
2016-03-28T13:35:11.988Z,8992
2016-03-28T13:36:12.319Z,9028
2016-03-28T13:37:11.821Z,8952
2016-03-28T13:38:11.121Z,8872
2016-03-28T13:39:22.780Z,8936
2016-03-28T13:40:12.594Z,9008
2016-03-28T13:41:11.676Z,9064
2016-03-28T13:42:11.632Z,9200
2016-03-28T13:43:12.337Z,9436
2016-03-28T13:45:11.280Z,9592
2016-03-28T13:46:12.752Z,9444
2016-03-28T13:47:11.957Z,9224
2016-03-28T13:49:11.634Z,8712
2016-03-28T13:50:12.996Z,8440
2016-03-28T13:51:11.874Z,8052
2016-03-28T13:52:12.064Z,7948
2016-03-28T13:53:12.474Z,7292
2016-03-28T13:55:11.401Z,6936
2016-03-28T13:56:12.029Z,7044
2016-03-28T13:57:11.234Z,6920
2016-03-28T13:58:12.518Z,6916
2016-03-28T13:59:11.520Z,6548
2016-03-28T14:00:12.278Z,5904
2016-03-28T14:01:12.671Z,5740
2016-03-28T14:02:12.377Z,4888
2016-03-28T14:03:12.427Z,4448
2016-03-28T14:04:12.679Z,3444
2016-03-28T14:05:12.635Z,2892
2016-03-28T14:06:12.560Z,2460
2016-03-28T14:07:11.986Z,2324
2016-03-28T14:09:12.741Z,2068
2016-03-28T14:10:12.650Z,2012
2016-03-28T14:12:12.858Z,1972
2016-03-28T14:13:12.095Z,2044
2016-03-28T14:14:11.927Z,2160
2016-03-28T14:15:10.835Z,2384
2016-03-28T14:16:10.869Z,2368
2016-03-28T14:17:11.763Z,2448
2016-03-28T14:18:12.171Z,2600
2016-03-28T14:19:12.971Z,2796
2016-03-28T14:21:56.870Z,3088
2016-03-28T14:23:23.654Z,3640
2016-03-28T14:24:49.957Z,4108
2016-03-28T14:26:20.630Z,4520
2016-03-28T14:27:45.621Z,5748
2016-03-28T14:29:14.279Z,7736
2016-03-28T14:30:39.751Z,9620
2016-03-28T14:32:07.990Z,10372
2016-03-28T14:32:46.009Z,10984
2016-03-28T14:33:48.246Z,11284
2016-03-28T14:34:46.733Z,11240
2016-03-28T14:35:46.470Z,11156
2016-03-28T14:36:46.489Z,10416
2016-03-28T14:37:46.273Z,9600
2016-03-28T14:38:47.337Z,8328
2016-03-28T14:39:44.622Z,7344
2016-03-28T14:40:47.296Z,6388
2016-03-28T14:42:46.614Z,5216
2016-03-28T14:43:46.617Z,4612
2016-03-28T14:44:44.541Z,4508
2016-03-28T14:45:46.716Z,5172
2016-03-28T14:46:46.703Z,5552
2016-03-28T14:47:45.033Z,6936
2016-03-28T14:49:44.539Z,7220
2016-03-28T14:50:44.932Z,8920
2016-03-28T14:51:46.201Z,9164
2016-03-28T14:52:44.766Z,7988
2016-03-28T14:53:46.613Z,7212
2016-03-28T14:54:44.878Z,7160
2016-03-28T14:55:44.990Z,7444
2016-03-28T14:56:45.243Z,7852
2016-03-28T14:57:45.808Z,8368
2016-03-28T14:58:46.891Z,7752
2016-03-28T14:59:45.298Z,8816
2016-03-28T15:00:47.007Z,9184
2016-03-28T15:01:46.632Z,8880
2016-03-28T15:02:45.571Z,8600
2016-03-28T15:03:44.887Z,9396
2016-03-28T15:04:47.079Z,8956
2016-03-28T15:05:45.876Z,7732
2016-03-28T15:06:46.879Z,8532
2016-03-28T15:08:41.837Z,7236
2016-03-28T15:09:05.434Z,7300
2016-03-28T15:09:56.295Z,8196
2016-03-28T15:10:55.892Z,8088
2016-03-28T15:12:07.098Z,7848
2016-03-28T15:12:56.803Z,8276
2016-03-28T15:13:56.759Z,7536
2016-03-28T15:14:58.591Z,6544
2016-03-28T15:16:56.205Z,5208
2016-03-28T15:17:56.552Z,5704
2016-03-28T15:18:57.023Z,7332
2016-03-28T15:19:57.400Z,7596
2016-03-28T15:21:07.497Z,7560
2016-03-28T15:22:04.953Z,6264
2016-03-28T15:22:56.955Z,5096
2016-03-28T15:23:56.396Z,4720
2016-03-28T15:24:57.211Z,4484
2016-03-28T15:25:56.963Z,4636
2016-03-28T15:26:56.576Z,3932
2016-03-28T15:27:57.360Z,3356
2016-03-28T15:28:57.535Z,3132
2016-03-28T15:29:56.006Z,2924
2016-03-28T15:30:56.071Z,3300
2016-03-28T15:31:56.168Z,3148
2016-03-28T15:32:56.435Z,3384
2016-03-28T15:33:56.063Z,3348
2016-03-28T15:34:57.066Z,2860
2016-03-28T15:35:56.256Z,2640
2016-03-28T15:36:57.196Z,2388
2016-03-28T15:37:56.434Z,2184
2016-03-28T15:38:56.764Z,2148
2016-03-28T15:40:56.473Z,2396
2016-03-28T15:42:34.194Z,2824
2016-03-28T15:44:26.403Z,2924
2016-03-28T15:46:14.158Z,2876
2016-03-28T15:48:03.180Z,2900
2016-03-28T15:49:47.325Z,3164
2016-03-28T15:51:35.828Z,2584
2016-03-28T15:53:25.146Z,3232
2016-03-28T15:55:11.369Z,5024
2016-03-28T15:57:03.860Z,4572
2016-03-28T15:58:53.615Z,4432
2016-03-28T16:00:34.852Z,3688
2016-03-28T16:02:24.623Z,3032
2016-03-28T16:04:13.019Z,2996
2016-03-28T16:06:00.337Z,2804
2016-03-28T16:07:48.498Z,2472
2016-03-28T16:09:33.407Z,2300
2016-03-28T16:09:48.254Z,2304
2016-03-28T16:10:47.694Z,2428
2016-03-28T16:11:48.212Z,2364
2016-03-28T16:12:48.340Z,2220
2016-03-28T16:13:49.358Z,2108
2016-03-28T16:14:56.298Z,2056
2016-03-28T16:15:51.067Z,2008
2016-03-28T16:16:51.023Z,1964
2016-03-28T16:17:51.369Z,1772
2016-03-28T16:19:51.406Z,1720
2016-03-28T16:20:51.533Z,1684
2016-03-28T16:21:50.552Z,1648
2016-03-28T16:22:51.742Z,1636
2016-03-28T16:23:51.822Z,1612
2016-03-28T16:24:50.607Z,1640
2016-03-28T16:25:51.422Z,1712
2016-03-28T16:26:50.924Z,2084
2016-03-28T16:27:50.802Z,2336
2016-03-28T16:28:53.040Z,2524
2016-03-28T16:29:50.651Z,2636
2016-03-28T16:31:05.716Z,2612
2016-03-28T16:31:51.516Z,2656
2016-03-28T16:32:50.926Z,2644
2016-03-28T16:33:51.006Z,2632
2016-03-28T16:34:50.837Z,2820
2016-03-28T16:35:51.934Z,2824
2016-03-28T16:36:48.279Z,2848
2016-03-28T16:38:51.301Z,2060
2016-03-28T16:39:51.210Z,1704
2016-03-28T16:41:51.278Z,1960
2016-03-28T16:42:51.217Z,1824
2016-03-28T16:43:50.376Z,1896
2016-03-28T16:44:50.942Z,1976
2016-03-28T16:45:50.007Z,2012
2016-03-28T16:46:50.840Z,1976
2016-03-28T16:47:50.545Z,1872
2016-03-28T16:48:50.860Z,1780
2016-03-28T16:49:50.862Z,1672
2016-03-28T16:50:51.084Z,1736
2016-03-28T16:51:51.242Z,1676
2016-03-28T16:52:52.058Z,1572
2016-03-28T16:53:50.639Z,1552
2016-03-28T16:54:50.829Z,1524
2016-03-28T16:55:59.364Z,1624
2016-03-28T16:56:50.538Z,1700
2016-03-28T16:57:51.275Z,1584
2016-03-28T16:59:04.684Z,1388
2016-03-28T16:59:52.359Z,1132
2016-03-28T17:00:50.502Z,1024
2016-03-28T17:01:50.520Z,976
2016-03-28T17:02:50.600Z,944
2016-03-28T17:03:50.681Z,908
2016-03-28T17:04:50.590Z,876
2016-03-28T17:05:50.437Z,852
2016-03-28T17:06:50.393Z,824
2016-03-28T17:08:45.036Z,784
2016-03-28T17:10:40.072Z,736
2016-03-28T17:12:24.891Z,676
2016-03-28T17:14:09.724Z,632
2016-03-28T17:15:52.276Z,576
2016-03-28T17:17:36.421Z,520
2016-03-28T17:19:38.004Z,464
2016-03-28T17:21:29.821Z,408
2016-03-28T17:23:38.338Z,364
2016-03-28T17:25:43.862Z,332
2016-03-28T17:28:06.292Z,260
2016-03-28T17:30:16.969Z,224
2016-03-28T17:32:04.585Z,200
2016-03-28T17:34:08.402Z,168
2016-03-28T17:37:46.769Z,120
2016-03-28T17:38:00.069Z,120
2016-03-28T17:39:00.604Z,108
2016-03-28T17:40:01.637Z,96
2016-03-28T17:41:02.187Z,84
2016-03-28T17:42:01.549Z,72
2016-03-28T17:43:01.114Z,64
2016-03-28T17:44:01.632Z,60
2016-03-28T17:45:02.010Z,52
2016-03-28T17:46:01.279Z,44
2016-03-28T17:47:01.703Z,40
2016-03-28T17:48:03.034Z,32
2016-03-28T17:49:00.145Z,32
2016-03-28T17:50:02.336Z,24
2016-03-28T17:51:02.261Z,20
2016-03-28T17:52:02.497Z,12
2016-03-28T17:54:03.861Z,8
2016-03-28T17:55:12.911Z,4
2016-03-28T17:56:04.133Z,4
2016-03-28T17:57:04.167Z,4
2016-03-28T17:58:04.325Z,4
2016-03-28T17:59:05.063Z,4
2016-03-28T18:00:03.800Z,4
2016-03-28T18:01:04.209Z,4
2016-03-28T18:02:04.336Z,4
2016-03-28T18:03:03.480Z,0
2016-03-28T18:04:04.233Z,4
2016-03-28T18:05:03.641Z,4
2016-03-28T18:06:04.191Z,0
2016-03-28T18:07:12.381Z,0
2016-03-28T18:08:03.727Z,0
2016-03-28T18:09:00.762Z,0
2016-03-28T18:10:03.936Z,0
2016-03-28T18:11:17.923Z,0
2016-03-28T18:13:05.179Z,0
2016-03-28T18:14:12.915Z,0
2016-03-28T18:15:03.903Z,0
2016-03-28T18:16:03.781Z,0
2016-03-28T18:17:04.220Z,0
2016-03-28T18:18:05.020Z,0
2016-03-28T18:19:00.570Z,0
2016-03-28T18:20:00.932Z,0
2016-03-28T18:21:00.762Z,0
2016-03-28T18:22:16.203Z,0
2016-03-28T18:23:09.597Z,0
2016-03-28T18:24:00.193Z,0
2016-03-28T18:26:00.511Z,0
2016-03-28T18:27:00.764Z,0
2016-03-28T18:28:03.860Z,0
2016-03-28T18:29:00.050Z,0
2016-03-28T18:29:59.803Z,0
2016-03-28T18:31:03.914Z,0
2016-03-28T18:32:03.589Z,0
2016-03-28T18:33:11.936Z,0
2016-03-28T18:34:00.501Z,0
2016-03-28T18:35:00.707Z,0
2016-03-28T18:36:14.444Z,0
2016-03-28T18:37:00.071Z,0
2016-03-28T18:38:00.152Z,0
2016-03-28T18:40:03.580Z,0
2016-03-28T18:41:01.691Z,0
2016-03-28T18:43:02.868Z,0
2016-03-28T18:44:03.278Z,0
2016-03-28T18:45:04.015Z,0
2016-03-28T18:46:03.923Z,0
2016-03-28T18:47:03.426Z,0
2016-03-28T18:48:03.039Z,0
2016-03-28T18:49:03.432Z,0
2016-03-28T18:50:03.154Z,0
2016-03-28T18:51:03.328Z,0
2016-03-28T18:52:03.534Z,0
2016-03-28T18:53:00.145Z,0
2016-03-28T18:54:03.461Z,0
2016-03-28T18:55:03.792Z,0
2016-03-28T18:56:03.294Z,0
2016-03-28T18:58:03.456Z,0
2016-03-28T18:59:03.647Z,0
2016-03-28T19:00:03.071Z,0
2016-03-28T19:01:02.808Z,0
2016-03-28T19:02:04.341Z,0
2016-03-28T19:03:03.314Z,0
2016-03-28T19:04:03.582Z,0
2016-03-28T19:05:03.537Z,0
2016-03-28T19:06:02.838Z,0
2016-03-28T19:07:03.668Z,0
2016-03-28T19:08:04.853Z,0
2016-03-28T19:09:03.545Z,0
2016-03-28T19:10:02.422Z,0
2016-03-28T19:11:03.456Z,0
2016-03-28T19:12:03.678Z,0
2016-03-28T19:13:03.461Z,0
2016-03-28T19:14:02.652Z,0
2016-03-28T19:15:03.294Z,0
2016-03-28T19:16:03.610Z,0
2016-03-28T19:17:03.112Z,0
2016-03-28T19:18:02.725Z,0
2016-03-28T19:19:03.102Z,0
2016-03-28T19:20:03.277Z,0
2016-03-28T19:21:03.030Z,0
2016-03-28T19:22:03.001Z,0
2016-03-28T19:23:02.847Z,0
2016-03-28T19:24:02.913Z,0
2016-03-28T19:25:02.665Z,0
2016-03-28T19:26:03.059Z,0
2016-03-28T19:27:12.640Z,0
2016-03-28T19:28:02.501Z,0
2016-03-28T19:29:02.552Z,0
2016-03-28T19:30:02.616Z,0
2016-03-28T19:31:02.618Z,0
2016-03-28T19:32:02.779Z,0
2016-03-28T19:33:02.781Z,0
2016-03-28T19:34:11.659Z,0
2016-03-28T19:35:04.443Z,0
2016-03-28T19:36:11.382Z,0
2016-03-28T19:37:03.182Z,0
2016-03-28T19:38:03.326Z,0
2016-03-28T19:39:02.781Z,0
2016-03-28T19:40:02.955Z,0
2016-03-28T19:41:02.787Z,0
2016-03-28T19:42:02.664Z,0
2016-03-28T19:43:02.791Z,0
2016-03-28T19:44:02.811Z,0
2016-03-28T19:45:02.531Z,0
2016-03-28T19:47:02.537Z,0
2016-03-28T19:48:02.821Z,0
2016-03-28T19:49:02.480Z,0
2016-03-28T19:50:02.827Z,0
2016-03-28T19:51:02.282Z,0
2016-03-28T19:52:02.754Z,0
2016-03-28T19:52:59.303Z,0
2016-03-28T19:54:13.291Z,0
2016-03-28T19:55:03.074Z,0
2016-03-28T19:56:02.936Z,0
2016-03-28T19:59:02.929Z,0
2016-03-28T20:00:02.150Z,0
2016-03-28T20:01:02.840Z,0
2016-03-28T20:01:59.749Z,0
2016-03-28T20:03:03.034Z,0
2016-03-28T20:04:02.317Z,0
2016-03-28T20:05:03.804Z,0
2016-03-28T20:06:03.088Z,0
2016-03-28T20:07:02.887Z,0
2016-03-28T20:08:02.781Z,0
2016-03-28T20:08:59.409Z,0
2016-03-28T20:09:59.739Z,0
2016-03-28T20:11:02.773Z,0
2016-03-28T20:11:59.104Z,0
2016-03-28T20:13:03.592Z,0
2016-03-28T20:13:59.485Z,0
2016-03-28T20:15:07.378Z,0
2016-03-28T20:16:11.896Z,0
2016-03-28T20:17:03.525Z,0
2016-03-28T20:18:11.620Z,0
2016-03-28T20:19:02.935Z,0
2016-03-28T20:19:58.594Z,0
2016-03-28T20:21:02.160Z,0
2016-03-28T20:21:58.772Z,0
2016-03-28T20:23:59.199Z,0
2016-03-28T20:25:02.263Z,0
2016-03-28T20:25:58.877Z,0
2016-03-28T20:27:02.426Z,0
2016-03-28T20:28:02.897Z,0
2016-03-28T20:29:02.103Z,0
2016-03-28T20:30:59.093Z,0
2016-03-28T20:31:58.674Z,0
2016-03-28T20:33:01.785Z,0
2016-03-28T20:33:58.804Z,0
2016-03-28T20:35:12.088Z,0
2016-03-28T20:35:59.075Z,0
2016-03-28T20:37:03.750Z,0
2016-03-28T20:37:59.095Z,0
2016-03-28T20:38:58.818Z,0
2016-03-28T20:39:59.273Z,0
2016-03-28T20:41:12.151Z,0
2016-03-28T20:42:02.092Z,0
2016-03-28T20:43:01.906Z,0
2016-03-28T20:44:02.862Z,0
2016-03-28T20:45:10.709Z,0
2016-03-28T20:46:01.930Z,0
2016-03-28T20:47:04.854Z,0
2016-03-28T20:48:02.029Z,0
2016-03-28T20:49:02.625Z,0
2016-03-28T20:50:03.050Z,0
2016-03-28T20:51:02.131Z,0
2016-03-28T20:52:02.149Z,0
2016-03-28T20:53:01.902Z,0
2016-03-28T20:54:01.592Z,0
2016-03-28T20:55:02.251Z,0
2016-03-28T20:56:02.238Z,0
2016-03-28T20:57:02.210Z,0
2016-03-28T20:58:10.634Z,0
2016-03-28T20:59:02.466Z,0
2016-03-28T21:00:01.890Z,0
2016-03-28T21:01:01.720Z,0
2016-03-28T21:02:02.208Z,0
2016-03-28T21:03:02.382Z,0
2016-03-28T21:04:01.901Z,0
2016-03-28T21:05:01.981Z,0
2016-03-28T21:06:02.218Z,0
2016-03-28T21:07:02.033Z,0
2016-03-28T21:08:02.380Z,0
2016-03-28T21:09:02.117Z,0
2016-03-28T21:10:01.572Z,0
2016-03-28T21:11:02.372Z,0
2016-03-28T21:13:01.487Z,0
2016-03-28T21:14:01.865Z,0
2016-03-28T21:15:01.461Z,0
2016-03-28T21:16:01.683Z,0
2016-03-28T21:17:01.436Z,0
2016-03-28T21:18:01.719Z,0
2016-03-28T21:19:10.409Z,0
2016-03-28T21:20:01.833Z,0
2016-03-28T21:21:01.431Z,0
2016-03-28T21:22:01.902Z,0
2016-03-28T21:23:10.654Z,0
2016-03-28T21:24:02.251Z,0
2016-03-28T21:25:58.566Z,0
2016-03-28T21:27:52.088Z,0
2016-03-28T21:29:04.968Z,0
2016-03-28T21:29:33.530Z,0
2016-03-28T21:30:24.424Z,0
2016-03-28T21:31:23.676Z,0
2016-03-28T21:32:24.537Z,0
2016-03-28T21:33:23.790Z,0
2016-03-28T21:34:24.074Z,0
2016-03-28T21:35:24.827Z,0
2016-03-28T21:36:25.127Z,0
2016-03-28T21:37:23.692Z,0
2016-03-28T21:38:36.914Z,0
2016-03-28T21:39:24.854Z,0
2016-03-28T21:40:25.262Z,0
2016-03-28T21:41:24.156Z,0
2016-03-28T21:42:23.470Z,0
2016-03-28T21:43:24.615Z,0
2016-03-28T21:44:25.508Z,0
2016-03-28T21:45:23.667Z,0
2016-03-28T21:46:23.889Z,0
2016-03-28T21:47:25.391Z,0
2016-03-28T21:48:32.389Z,0
2016-03-28T21:49:25.398Z,0
2016-03-28T21:50:23.470Z,0
2016-03-28T21:51:32.354Z,0
2016-03-28T21:52:23.442Z,0
2016-03-28T21:53:34.735Z,0
2016-03-28T21:54:24.016Z,0
2016-03-28T21:55:25.515Z,0
2016-03-28T21:56:24.592Z,0
2016-03-28T21:57:34.124Z,0
2016-03-28T21:58:33.781Z,0
2016-03-28T21:59:24.188Z,0
2016-03-28T22:00:24.501Z,0
2016-03-28T22:01:23.550Z,0
2016-03-28T22:02:24.552Z,0
2016-03-28T22:03:35.335Z,0
2016-03-28T22:04:23.870Z,0
2016-03-28T22:05:25.137Z,0
2016-03-28T22:06:23.357Z,0
2016-03-28T22:07:25.548Z,0
2016-03-28T22:08:24.847Z,0
2016-03-28T22:09:23.990Z,0
2016-03-28T22:11:27.119Z,0
2016-03-28T22:12:27.059Z,0
2016-03-28T22:14:26.033Z,0
2016-03-28T22:15:27.224Z,0
2016-03-28T22:16:26.741Z,0
2016-03-28T22:18:26.903Z,0
2016-03-28T22:20:26.251Z,0
2016-03-28T22:21:26.599Z,0
2016-03-28T22:22:27.711Z,0
2016-03-28T22:23:38.245Z,0
2016-03-28T22:24:26.404Z,0
2016-03-28T22:25:26.875Z,0
2016-03-28T22:26:27.237Z,0
2016-03-28T22:27:35.334Z,0
2016-03-28T22:28:26.305Z,0
2016-03-28T22:29:27.308Z,0
2016-03-28T22:30:26.279Z,0
2016-03-28T22:31:26.470Z,0
2016-03-28T22:32:35.347Z,0
2016-03-28T22:33:26.522Z,0
2016-03-28T22:34:26.431Z,0
2016-03-28T22:35:27.402Z,0
2016-03-28T22:36:25.983Z,0
2016-03-28T22:38:22.941Z,0
2016-03-28T22:39:26.897Z,0
2016-03-28T22:40:26.963Z,0
2016-03-28T22:41:26.449Z,0
2016-03-28T22:42:25.921Z,0
2016-03-28T22:43:26.127Z,0
2016-03-28T22:44:39.676Z,0
2016-03-28T22:45:41.429Z,0
2016-03-28T22:46:27.072Z,0
2016-03-28T22:47:26.559Z,0
2016-03-28T22:48:26.827Z,0
2016-03-28T22:49:41.017Z,0
2016-03-28T22:51:26.320Z,0
2016-03-28T22:52:26.338Z,0
2016-03-28T22:53:27.060Z,0
2016-03-28T22:54:26.015Z,0
2016-03-28T22:55:26.628Z,0
2016-03-28T22:56:25.771Z,0
2016-03-28T22:57:26.758Z,0
2016-03-28T22:58:27.011Z,0
2016-03-28T22:59:36.903Z,0
2016-03-28T23:00:26.892Z,0
2016-03-28T23:01:26.612Z,0
2016-03-28T23:02:41.365Z,0
2016-03-28T23:04:37.355Z,0
2016-03-28T23:05:26.639Z,0
2016-03-28T23:06:36.986Z,0
2016-03-28T23:07:25.894Z,0
2016-03-28T23:08:24.069Z,0
2016-03-28T23:10:36.075Z,0
2016-03-28T23:11:23.374Z,0
2016-03-28T23:12:25.830Z,0
2016-03-28T23:13:34.957Z,0
2016-03-28T23:14:24.663Z,0
2016-03-28T23:16:26.044Z,0
2016-03-28T23:17:23.437Z,0
2016-03-28T23:19:22.942Z,0
2016-03-28T23:20:32.945Z,0
2016-03-28T23:21:31.760Z,0
2016-03-28T23:22:23.388Z,0
2016-03-28T23:23:22.640Z,0
2016-03-28T23:24:35.518Z,0
2016-03-28T23:25:22.301Z,0
2016-03-28T23:27:27.386Z,0
2016-03-28T23:28:25.450Z,0
2016-03-28T23:30:36.300Z,0
2016-03-28T23:31:22.318Z,0
2016-03-28T23:32:22.556Z,0
2016-03-28T23:33:31.058Z,0
2016-03-28T23:34:26.233Z,0
2016-03-28T23:35:31.360Z,0
2016-03-28T23:36:25.520Z,0
2016-03-28T23:37:22.584Z,0
2016-03-28T23:38:22.305Z,0
2016-03-28T23:39:24.793Z,0
2016-03-28T23:40:26.108Z,0
2016-03-28T23:41:33.157Z,0
2016-03-28T23:42:23.302Z,0
2016-03-28T23:43:25.413Z,0
2016-03-28T23:44:25.478Z,0
2016-03-28T23:45:26.027Z,0
2016-03-28T23:46:25.187Z,0
2016-03-28T23:47:25.049Z,0
2016-03-28T23:48:34.598Z,0
2016-03-28T23:49:34.429Z,0
2016-03-28T23:50:25.385Z,0
2016-03-28T23:51:25.887Z,0
2016-03-28T23:52:25.906Z,0
2016-03-28T23:53:34.377Z,0
2016-03-28T23:54:25.552Z,0
2016-03-28T23:55:36.476Z,0
2016-03-28T23:56:25.917Z,0
2016-03-28T23:57:34.653Z,0
2016-03-28T23:58:25.500Z,0
